createdAt,value
2019-01-24T00:00:47.905Z,101317.55
2019-01-24T00:03:20.427Z,101317.96
2019-01-24T00:05:53.476Z,101324.76
2019-01-24T00:08:25.440Z,101325.92
2019-01-24T00:10:57.398Z,101325.73
2019-01-24T00:13:29.124Z,101325.11
2019-01-24T00:16:00.814Z,101324.29
2019-01-24T00:18:32.910Z,101331.83
2019-01-24T00:21:04.674Z,101333.44
2019-01-24T00:23:36.376Z,101329.75
2019-01-24T00:26:08.130Z,101334.31
2019-01-24T00:28:40.092Z,101339.20
2019-01-24T00:31:11.816Z,101338.09
2019-01-24T00:33:43.577Z,101337.60
2019-01-24T00:36:15.693Z,101339.63
2019-01-24T00:38:47.543Z,101345.05
2019-01-24T00:41:19.257Z,101345.83
2019-01-24T00:43:51.022Z,101345.84
2019-01-24T00:46:22.864Z,101347.85
2019-01-24T00:48:54.555Z,101350.66
2019-01-24T00:51:26.617Z,101349.48
2019-01-24T00:53:58.304Z,101352.67
2019-01-24T00:56:29.981Z,101350.68
2019-01-24T00:59:01.691Z,101354.75
2019-01-24T01:01:33.374Z,101359.72
2019-01-24T01:04:05.083Z,101359.41
2019-01-24T01:06:36.760Z,101366.38
2019-01-24T01:09:08.657Z,101367.92
2019-01-24T01:11:40.344Z,101374.64
2019-01-24T01:14:12.035Z,101375.78
2019-01-24T01:16:43.743Z,101381.86
2019-01-24T01:19:15.427Z,101384.47
2019-01-24T01:21:47.227Z,101389.03
2019-01-24T01:24:18.919Z,101386.53
2019-01-24T01:26:51.019Z,101387.56
2019-01-24T01:29:22.779Z,101387.55
2019-01-24T01:31:54.501Z,101387.47
2019-01-24T01:34:26.162Z,101389.19
2019-01-24T01:36:57.862Z,101390.38
2019-01-24T01:39:29.552Z,101390.88
2019-01-24T01:42:01.419Z,101392.84
2019-01-24T01:44:33.442Z,101395.00
2019-01-24T01:47:05.498Z,101399.13
2019-01-24T01:49:37.177Z,101401.77
2019-01-24T01:52:08.892Z,101405.23
2019-01-24T01:54:40.579Z,101401.35
2019-01-24T01:57:12.448Z,101404.31
2019-01-24T01:59:44.139Z,101405.67
2019-01-24T02:02:15.820Z,101403.44
2019-01-24T02:04:47.511Z,101406.59
2019-01-24T02:07:19.238Z,101408.42
2019-01-24T02:09:50.914Z,101408.67
2019-01-24T02:12:22.606Z,101410.66
2019-01-24T02:14:54.322Z,101416.05
2019-01-24T02:17:26.014Z,101410.09
2019-01-24T02:19:57.696Z,101423.11
2019-01-24T02:22:29.401Z,101423.09
2019-01-24T02:25:01.088Z,101427.49
2019-01-24T02:27:32.791Z,101429.69
2019-01-24T02:30:23.851Z,101428.23
2019-01-24T02:32:55.555Z,101427.44
2019-01-24T02:35:27.313Z,101427.75
2019-01-24T02:37:59.025Z,101435.84
2019-01-24T02:40:30.743Z,101430.39
2019-01-24T02:43:02.416Z,101434.80
2019-01-24T02:45:34.151Z,101434.33
2019-01-24T02:48:05.901Z,101433.53
2019-01-24T02:50:37.630Z,101446.93
2019-01-24T02:53:09.315Z,101449.02
2019-01-24T02:55:41.041Z,101455.34
2019-01-24T02:58:12.984Z,101449.49
2019-01-24T03:00:44.689Z,101450.13
2019-01-24T03:03:16.384Z,101444.44
2019-01-24T03:05:48.103Z,101446.53
2019-01-24T03:08:19.785Z,101438.77
2019-01-24T03:10:51.504Z,101440.18
2019-01-24T03:13:23.196Z,101446.05
2019-01-24T03:15:54.897Z,101439.95
2019-01-24T03:18:26.587Z,101444.84
2019-01-24T03:20:58.278Z,101444.83
2019-01-24T03:23:29.976Z,101444.35
2019-01-24T03:26:01.671Z,101448.92
2019-01-24T03:28:33.357Z,101450.75
2019-01-24T03:31:05.049Z,101453.27
2019-01-24T03:33:36.761Z,101457.43
2019-01-24T03:36:08.455Z,101451.48
2019-01-24T03:38:40.470Z,101452.88
2019-01-24T03:41:12.153Z,101454.31
2019-01-24T03:43:43.842Z,101460.17
2019-01-24T03:46:15.534Z,101459.21
2019-01-24T03:48:47.308Z,101463.83
2019-01-24T03:51:18.983Z,101464.32
2019-01-24T03:53:50.710Z,101472.50
2019-01-24T03:56:22.768Z,101468.73
2019-01-24T03:58:54.527Z,101473.86
2019-01-24T04:01:26.218Z,101474.06
2019-01-24T04:03:57.909Z,101473.15
2019-01-24T04:06:29.610Z,101479.50
2019-01-24T04:09:01.359Z,101474.94
2019-01-24T04:11:33.137Z,101478.95
2019-01-24T04:14:05.456Z,101476.63
2019-01-24T04:16:37.164Z,101481.09
2019-01-24T04:19:08.844Z,101481.41
2019-01-24T04:21:40.538Z,101484.45
2019-01-24T04:24:12.248Z,101486.79
2019-01-24T04:26:43.927Z,101488.64
2019-01-24T04:29:15.636Z,101489.12
2019-01-24T04:31:47.320Z,101483.83
2019-01-24T04:34:19.022Z,101486.31
2019-01-24T04:36:50.714Z,101481.25
2019-01-24T04:39:22.396Z,101486.41
2019-01-24T04:41:54.858Z,101477.42
2019-01-24T04:44:26.550Z,101490.89
2019-01-24T04:46:58.627Z,101489.27
2019-01-24T04:49:30.335Z,101480.37
2019-01-24T04:52:02.034Z,101479.41
2019-01-24T04:54:33.789Z,101484.55
2019-01-24T04:57:05.503Z,101484.55
2019-01-24T04:59:37.182Z,101484.66
2019-01-24T05:02:08.880Z,101487.69
2019-01-24T05:04:40.573Z,101490.17
2019-01-24T05:07:12.249Z,101489.37
2019-01-24T05:09:43.942Z,101491.13
2019-01-24T05:12:15.620Z,101496.66
2019-01-24T05:14:47.318Z,101499.14
2019-01-24T05:17:19.012Z,101496.58
2019-01-24T05:19:50.694Z,101494.58
2019-01-24T05:22:22.818Z,101492.50
2019-01-24T05:24:54.722Z,101501.16
2019-01-24T05:27:26.416Z,101500.35
2019-01-24T05:29:58.584Z,101499.55
2019-01-24T05:32:30.306Z,101507.83
2019-01-24T05:35:02.047Z,101512.01
2019-01-24T05:37:33.796Z,101499.23
2019-01-24T05:40:08.416Z,101516.52
2019-01-24T05:42:40.112Z,101509.53
2019-01-24T05:45:14.194Z,101518.27
2019-01-24T05:47:46.261Z,101522.75
2019-01-24T05:50:18.016Z,101524.12
2019-01-24T05:52:49.712Z,101526.13
2019-01-24T05:55:21.426Z,101526.60
2019-01-24T05:57:53.120Z,101529.64
2019-01-24T06:00:26.479Z,101528.83
2019-01-24T06:02:58.239Z,101539.46
2019-01-24T06:05:29.953Z,101542.11
2019-01-24T06:08:01.985Z,101549.65
2019-01-24T06:10:33.682Z,101550.92
2019-01-24T06:13:05.370Z,101552.69
2019-01-24T06:15:37.074Z,101552.69
2019-01-24T06:18:08.766Z,101552.37
2019-01-24T06:20:40.499Z,101558.94
2019-01-24T06:23:12.223Z,101557.61
2019-01-24T06:25:43.933Z,101558.57
2019-01-24T06:28:15.618Z,101568.83
2019-01-24T06:30:47.318Z,101566.73
2019-01-24T06:33:18.998Z,101567.49
2019-01-24T06:35:50.714Z,101566.61
2019-01-24T06:38:22.393Z,101562.73
2019-01-24T06:40:54.105Z,101558.31
2019-01-24T06:43:25.787Z,101555.64
2019-01-24T06:45:57.510Z,101558.53
2019-01-24T06:48:29.191Z,101558.22
2019-01-24T06:51:00.951Z,101562.31
2019-01-24T06:53:32.638Z,101572.19
2019-01-24T06:56:04.423Z,101566.41
2019-01-24T06:58:36.433Z,101569.05
2019-01-24T07:01:08.123Z,101566.02
2019-01-24T07:03:39.812Z,101569.00
2019-01-24T07:06:11.497Z,101567.40
2019-01-24T07:08:43.269Z,101576.88
2019-01-24T07:11:14.968Z,101575.20
2019-01-24T07:13:46.770Z,101585.83
2019-01-24T07:16:18.639Z,101584.24
2019-01-24T07:18:50.385Z,101583.62
2019-01-24T07:21:22.101Z,101589.68
2019-01-24T07:23:54.121Z,101590.81
2019-01-24T07:26:25.837Z,101595.39
2019-01-24T07:28:57.533Z,101599.31
2019-01-24T07:31:29.609Z,101604.50
2019-01-24T07:34:01.297Z,101608.89
2019-01-24T07:36:33.013Z,101605.59
2019-01-24T07:39:07.004Z,101605.59
2019-01-24T07:41:38.698Z,101612.36
2019-01-24T07:44:10.397Z,101604.65
2019-01-24T07:46:42.113Z,101611.47
2019-01-24T07:49:13.793Z,101611.55
2019-01-24T07:51:45.515Z,101610.12
2019-01-24T07:54:17.279Z,101612.69
2019-01-24T07:56:49.001Z,101617.89
2019-01-24T07:59:20.677Z,101623.34
2019-01-24T08:01:52.399Z,101617.59
2019-01-24T08:04:24.117Z,101616.55
2019-01-24T08:06:55.876Z,101619.91
2019-01-24T08:09:27.574Z,101622.95
2019-01-24T08:11:59.267Z,101620.70
2019-01-24T08:14:30.959Z,101626.41
2019-01-24T08:17:02.651Z,101623.13
2019-01-24T08:19:34.400Z,101625.05
2019-01-24T08:22:06.425Z,101631.55
2019-01-24T08:24:38.120Z,101632.19
2019-01-24T08:27:09.817Z,101630.74
2019-01-24T08:29:41.499Z,101634.83
2019-01-24T08:32:13.558Z,101643.50
2019-01-24T08:34:45.339Z,101644.91
2019-01-24T08:37:17.033Z,101642.33
2019-01-24T08:39:48.813Z,101637.17
2019-01-24T08:42:20.510Z,101646.27
2019-01-24T08:44:52.201Z,101646.74
2019-01-24T08:47:24.228Z,101645.92
2019-01-24T08:49:56.189Z,101648.41
2019-01-24T08:52:27.901Z,101649.72
2019-01-24T08:54:59.675Z,101646.41
2019-01-24T08:57:31.563Z,101653.95
2019-01-24T09:00:05.263Z,101649.31
2019-01-24T09:02:36.976Z,101648.73
2019-01-24T09:05:09.011Z,101653.97
2019-01-24T09:07:40.707Z,101655.73
2019-01-24T09:10:28.733Z,101657.72
2019-01-24T09:13:00.430Z,101655.16
2019-01-24T09:15:32.782Z,101653.16
2019-01-24T09:18:05.974Z,101657.35
2019-01-24T09:20:37.741Z,101668.75
2019-01-24T09:23:09.463Z,101672.44
2019-01-24T09:25:41.156Z,101670.19
2019-01-24T09:28:14.955Z,101674.13
2019-01-24T09:30:46.288Z,101680.73
2019-01-24T09:33:18.114Z,101679.66
2019-01-24T09:35:49.804Z,101686.53
2019-01-24T09:38:21.818Z,101684.82
2019-01-24T09:40:53.532Z,101683.44
2019-01-24T09:43:25.502Z,101683.38
2019-01-24T09:45:57.378Z,101683.84
2019-01-24T09:48:29.285Z,101677.91
2019-01-24T09:51:01.355Z,101687.06
2019-01-24T09:53:33.092Z,101685.76
2019-01-24T09:56:04.825Z,101685.45
2019-01-24T09:58:39.305Z,101675.80
2019-01-24T10:01:11.099Z,101678.52
2019-01-24T10:03:42.926Z,101680.52
2019-01-24T10:06:14.887Z,101680.87
2019-01-24T10:08:46.725Z,101682.14
2019-01-24T10:11:23.465Z,101682.20
2019-01-24T10:13:52.085Z,101678.67
2019-01-24T10:16:23.767Z,101678.91
2019-01-24T10:18:56.182Z,101676.81
2019-01-24T10:21:27.980Z,101677.91
2019-01-24T10:23:59.983Z,101671.54
2019-01-24T10:26:31.817Z,101676.95
2019-01-24T10:29:03.525Z,101678.77
2019-01-24T10:31:40.078Z,101676.83
2019-01-24T10:34:13.226Z,101677.63
2019-01-24T10:36:44.928Z,101632.10
2019-01-24T10:39:16.823Z,101678.13
2019-01-24T10:41:48.572Z,101680.28
2019-01-24T10:44:20.607Z,101681.65
2019-01-24T10:46:52.596Z,101686.88
2019-01-24T10:49:24.550Z,101691.05
2019-01-24T10:51:56.686Z,101692.09
2019-01-24T10:54:28.456Z,101686.70
2019-01-24T10:57:00.267Z,101681.72
2019-01-24T10:59:32.034Z,101684.36
2019-01-24T11:02:03.752Z,101683.80
2019-01-24T11:04:35.477Z,101687.45
2019-01-24T11:07:07.379Z,101687.33
2019-01-24T11:09:39.098Z,101682.06
2019-01-24T11:12:10.822Z,101686.14
2019-01-24T11:14:42.519Z,101685.17
2019-01-24T11:17:14.288Z,101684.51
2019-01-24T11:19:46.528Z,101681.91
2019-01-24T11:22:18.498Z,101683.14
2019-01-24T11:24:50.289Z,101678.48
2019-01-24T11:27:22.109Z,101674.28
2019-01-24T11:29:54.229Z,101669.16
2019-01-24T11:32:26.867Z,101669.58
2019-01-24T11:34:58.704Z,101666.38
2019-01-24T11:37:30.390Z,101672.41
2019-01-24T11:40:02.075Z,101668.52
2019-01-24T11:42:33.909Z,101669.23
2019-01-24T11:45:10.156Z,101665.84
2019-01-24T11:47:42.338Z,101657.63
2019-01-24T11:50:16.843Z,101660.80
2019-01-24T11:52:48.801Z,101654.19
2019-01-24T11:55:22.293Z,101647.41
2019-01-24T11:57:54.513Z,101649.17
2019-01-24T12:00:34.241Z,101642.45
2019-01-24T12:03:07.019Z,101643.02
2019-01-24T12:05:51.087Z,101647.08
2019-01-24T12:08:22.891Z,101641.12
2019-01-24T12:10:55.479Z,101647.03
2019-01-24T12:13:27.423Z,101645.34
2019-01-24T12:15:59.359Z,101644.77
2019-01-24T12:18:31.175Z,101650.63
2019-01-24T12:21:02.941Z,101657.41
2019-01-24T12:23:34.681Z,101652.81
2019-01-24T12:26:06.442Z,101659.63
2019-01-24T12:28:38.166Z,101653.06
2019-01-24T12:31:09.855Z,101658.38
2019-01-24T12:33:41.833Z,101660.41
2019-01-24T12:36:13.520Z,101658.04
2019-01-24T12:38:45.475Z,101649.37
2019-01-24T12:41:17.161Z,101654.63
2019-01-24T12:43:48.873Z,101646.02
2019-01-24T12:46:20.560Z,101637.66
2019-01-24T12:48:52.297Z,101640.20
2019-01-24T12:51:24.262Z,101632.31
2019-01-24T12:53:55.996Z,101631.69
2019-01-24T12:56:27.682Z,101631.36
2019-01-24T12:58:59.462Z,101631.12
2019-01-24T13:01:31.224Z,101631.09
2019-01-24T13:04:02.937Z,101632.53
2019-01-24T13:06:34.635Z,101629.17
2019-01-24T13:09:07.745Z,101634.66
2019-01-24T13:11:39.446Z,101637.82
2019-01-24T13:14:11.213Z,101627.06
2019-01-24T13:16:43.275Z,101634.08
2019-01-24T13:19:14.956Z,101635.30
2019-01-24T13:21:46.828Z,101580.70
2019-01-24T13:24:18.603Z,101630.48
2019-01-24T13:26:50.643Z,101632.64
2019-01-24T13:29:22.353Z,101635.86
2019-01-24T13:31:54.039Z,101630.61
2019-01-24T13:34:25.750Z,101628.37
2019-01-24T13:36:57.423Z,101626.36
2019-01-24T13:39:29.174Z,101630.08
2019-01-24T13:42:00.946Z,101625.66
2019-01-24T13:44:32.652Z,101632.50
2019-01-24T13:47:04.335Z,101627.12
2019-01-24T13:49:36.088Z,101628.23
2019-01-24T13:52:08.204Z,101632.16
2019-01-24T13:54:40.151Z,101627.98
2019-01-24T13:57:11.846Z,101634.33
2019-01-24T13:59:43.670Z,101630.78
2019-01-24T14:02:27.006Z,101635.31
2019-01-24T14:04:58.708Z,101633.59
2019-01-24T14:07:33.035Z,101642.53
2019-01-24T14:10:06.325Z,101648.31
2019-01-24T14:12:38.004Z,101634.56
2019-01-24T14:15:18.588Z,101633.34
2019-01-24T14:17:50.273Z,101637.88
2019-01-24T14:20:22.752Z,101640.53
2019-01-24T14:22:55.350Z,101642.98
2019-01-24T14:25:27.038Z,101645.35
2019-01-24T14:27:59.743Z,101652.09
2019-01-24T14:30:31.538Z,101660.59
2019-01-24T14:33:03.214Z,101659.12
2019-01-24T14:35:35.379Z,101665.03
2019-01-24T14:38:08.673Z,101661.39
2019-01-24T14:40:40.350Z,101662.91
2019-01-24T14:43:12.038Z,101663.87
2019-01-24T14:45:43.748Z,101659.38
2019-01-24T14:48:15.455Z,101663.30
2019-01-24T14:50:47.161Z,101662.26
2019-01-24T14:53:18.844Z,101662.11
2019-01-24T14:55:50.798Z,101662.09
2019-01-24T14:58:22.680Z,101661.94
2019-01-24T15:00:59.378Z,101664.66
2019-01-24T15:03:31.103Z,101677.84
2019-01-24T15:06:04.975Z,101671.66
2019-01-24T15:08:37.155Z,101674.23
2019-01-24T15:11:09.395Z,101671.75
2019-01-24T15:13:41.676Z,101666.78
2019-01-24T15:16:13.385Z,101660.42
2019-01-24T15:18:45.063Z,101661.25
2019-01-24T15:21:16.742Z,101662.88
2019-01-24T15:23:48.458Z,101658.36
2019-01-24T15:26:20.511Z,101660.87
2019-01-24T15:28:52.530Z,101665.27
2019-01-24T15:31:24.655Z,101660.14
2019-01-24T15:33:56.378Z,101655.81
2019-01-24T15:36:28.068Z,101661.20
2019-01-24T15:38:59.852Z,101665.95
2019-01-24T15:41:31.649Z,101665.67
2019-01-24T15:44:03.593Z,101668.02
2019-01-24T15:46:35.348Z,101667.20
2019-01-24T15:49:07.032Z,101668.58
2019-01-24T15:51:38.765Z,101669.88
2019-01-24T15:54:10.462Z,101669.40
2019-01-24T15:56:42.179Z,101674.80
2019-01-24T15:59:13.943Z,101682.03
2019-01-24T16:01:45.635Z,101683.07
2019-01-24T16:04:19.914Z,101688.20
2019-01-24T16:06:51.083Z,101688.92
2019-01-24T16:09:23.071Z,101687.06
2019-01-24T16:11:54.797Z,101683.53
2019-01-24T16:14:26.480Z,101686.10
2019-01-24T16:16:58.826Z,101695.27
2019-01-24T16:19:31.093Z,101689.41
2019-01-24T16:22:03.589Z,101685.47
2019-01-24T16:24:35.406Z,101686.34
2019-01-24T16:27:07.621Z,101681.27
2019-01-24T16:29:39.342Z,101689.22
2019-01-24T16:32:11.028Z,101689.73
2019-01-24T16:34:42.754Z,101693.50
2019-01-24T16:37:15.163Z,101695.02
2019-01-24T16:39:46.860Z,101698.09
2019-01-24T16:42:18.674Z,101694.23
2019-01-24T16:44:50.690Z,101691.00
2019-01-24T16:47:22.399Z,101692.84
2019-01-24T16:49:54.086Z,101687.62
2019-01-24T16:52:25.780Z,101688.02
2019-01-24T16:54:57.969Z,101692.03
2019-01-24T16:57:29.935Z,101686.56
2019-01-24T17:00:01.668Z,101693.11
2019-01-24T17:02:33.761Z,101701.94
2019-01-24T17:05:07.764Z,101694.37
2019-01-24T17:07:39.847Z,101706.27
2019-01-24T17:10:23.950Z,101700.97
2019-01-24T17:12:56.469Z,101704.67
2019-01-24T17:15:28.225Z,101699.45
2019-01-24T17:18:00.597Z,101677.24
2019-01-24T17:20:32.922Z,101688.91
2019-01-24T17:23:05.506Z,101689.16
2019-01-24T17:25:37.505Z,101687.78
2019-01-24T17:28:09.236Z,101692.52
2019-01-24T17:30:44.060Z,101700.17
2019-01-24T17:33:16.068Z,101701.70
2019-01-24T17:35:48.391Z,101708.54
2019-01-24T17:38:23.899Z,101706.00
2019-01-24T17:40:53.641Z,101697.73
2019-01-24T17:43:25.415Z,101687.23
2019-01-24T17:45:57.092Z,101692.94
2019-01-24T17:48:28.787Z,101691.72
2019-01-24T17:51:00.564Z,101688.01
2019-01-24T17:53:32.613Z,101699.68
2019-01-24T17:56:04.641Z,101701.19
2019-01-24T17:58:36.313Z,101704.80
2019-01-24T18:01:08.051Z,101706.62
2019-01-24T18:03:39.748Z,101709.69
2019-01-24T18:06:11.492Z,101712.91
2019-01-24T18:08:43.355Z,101712.60
2019-01-24T18:11:15.100Z,101711.63
2019-01-24T18:13:46.800Z,101712.86
2019-01-24T18:16:18.756Z,101718.08
2019-01-24T18:18:50.427Z,101723.62
2019-01-24T18:21:22.293Z,101726.59
2019-01-24T18:23:54.298Z,101732.30
2019-01-24T18:26:25.998Z,101733.34
2019-01-24T18:28:58.208Z,101729.90
2019-01-24T18:31:29.908Z,101734.41
2019-01-24T18:34:01.659Z,101739.36
2019-01-24T18:36:33.439Z,101742.19
2019-01-24T18:39:08.483Z,101741.33
2019-01-24T18:41:40.176Z,101751.94
2019-01-24T18:44:11.858Z,101754.52
2019-01-24T18:46:43.906Z,101758.94
2019-01-24T18:49:15.658Z,101758.54
2019-01-24T18:51:47.370Z,101760.46
2019-01-24T18:54:19.060Z,101763.86
2019-01-24T18:56:51.065Z,101776.67
2019-01-24T18:59:23.037Z,101780.73
2019-01-24T19:01:54.955Z,101780.41
2019-01-24T19:04:27.686Z,101781.34
2019-01-24T19:07:00.019Z,101727.16
2019-01-24T19:09:32.064Z,101788.34
2019-01-24T19:12:04.179Z,101740.35
2019-01-24T19:14:35.938Z,101790.33
2019-01-24T19:17:07.616Z,101796.89
2019-01-24T19:19:42.182Z,101792.20
2019-01-24T19:22:13.901Z,101784.66
2019-01-24T19:24:45.596Z,101779.59
2019-01-24T19:27:17.348Z,101783.70
2019-01-24T19:29:49.043Z,101787.95
2019-01-24T19:32:20.758Z,101784.62
2019-01-24T19:34:52.698Z,101777.72
2019-01-24T19:37:24.374Z,101773.77
2019-01-24T19:39:56.078Z,101781.08
2019-01-24T19:42:27.772Z,101780.53
2019-01-24T19:44:59.515Z,101788.88
2019-01-24T19:47:31.217Z,101792.19
2019-01-24T19:50:02.959Z,101786.66
2019-01-24T19:52:34.673Z,101789.50
2019-01-24T19:55:10.513Z,101783.88
2019-01-24T19:57:42.191Z,101795.81
2019-01-24T20:00:25.318Z,101796.34
2019-01-24T20:02:57.485Z,101799.16
2019-01-24T20:05:29.160Z,101801.01
2019-01-24T20:08:00.854Z,101807.12
2019-01-24T20:10:32.602Z,101805.03
2019-01-24T20:13:05.466Z,101807.03
2019-01-24T20:15:37.223Z,101801.98
2019-01-24T20:18:08.933Z,101803.50
2019-01-24T20:20:40.660Z,101810.25
2019-01-24T20:23:12.378Z,101808.72
2019-01-24T20:25:44.160Z,101807.92
2019-01-24T20:28:15.863Z,101805.04
2019-01-24T20:30:49.827Z,101809.34
2019-01-24T20:33:22.475Z,101808.21
2019-01-24T20:35:54.934Z,101805.65
2019-01-24T20:38:26.778Z,101812.55
2019-01-24T20:40:58.804Z,101806.61
2019-01-24T20:43:35.356Z,101814.41
2019-01-24T20:46:04.453Z,101814.48
2019-01-24T20:48:36.134Z,101814.98
2019-01-24T20:51:07.822Z,101823.13
2019-01-24T20:53:40.529Z,101825.22
2019-01-24T20:56:12.994Z,101830.13
2019-01-24T20:58:44.797Z,101832.85
2019-01-24T21:01:16.519Z,101826.11
2019-01-24T21:03:55.108Z,101821.05
2019-01-24T21:06:21.673Z,101824.02
2019-01-24T21:08:53.415Z,101823.22
2019-01-24T21:11:25.406Z,101821.93
2019-01-24T21:13:57.122Z,101821.77
2019-01-24T21:16:28.806Z,101824.02
2019-01-24T21:19:00.524Z,101816.87
2019-01-24T21:21:32.415Z,101824.01
2019-01-24T21:24:04.488Z,101826.42
2019-01-24T21:26:36.357Z,101821.36
2019-01-24T21:29:08.378Z,101823.30
2019-01-24T21:31:40.344Z,101829.08
2019-01-24T21:34:12.128Z,101830.20
2019-01-24T21:36:43.896Z,101832.84
2019-01-24T21:39:21.984Z,101831.64
2019-01-24T21:41:49.004Z,101832.69
2019-01-24T21:44:20.718Z,101836.55
2019-01-24T21:46:52.571Z,101833.41
2019-01-24T21:49:24.562Z,101837.34
2019-01-24T21:51:56.236Z,101837.15
2019-01-24T21:54:27.947Z,101835.66
2019-01-24T21:56:59.642Z,101837.59
2019-01-24T21:59:31.356Z,101835.09
2019-01-24T22:02:03.096Z,101835.91
2019-01-24T22:04:34.799Z,101838.07
2019-01-24T22:07:06.793Z,101838.80
2019-01-24T22:09:38.504Z,101832.61
2019-01-24T22:12:10.249Z,101831.56
2019-01-24T22:14:41.934Z,101826.95
2019-01-24T22:17:13.635Z,101830.33
2019-01-24T22:19:45.418Z,101831.05
2019-01-24T22:22:17.098Z,101831.29
2019-01-24T22:24:48.838Z,101832.45
2019-01-24T22:27:20.590Z,101833.18
2019-01-24T22:29:52.296Z,101829.64
2019-01-24T22:32:24.017Z,101827.08
2019-01-24T22:34:55.791Z,101823.50
2019-01-24T22:37:27.513Z,101819.77
2019-01-24T22:39:59.198Z,101815.67
2019-01-24T22:42:30.989Z,101815.75
2019-01-24T22:45:02.680Z,101820.57
2019-01-24T22:47:34.365Z,101821.69
2019-01-24T22:50:11.076Z,101813.98
2019-01-24T22:52:43.057Z,101815.91
2019-01-24T22:55:14.817Z,101814.34
2019-01-24T22:57:46.512Z,101818.48
2019-01-24T23:00:48.854Z,101818.56
2019-01-24T23:03:25.828Z,101810.78
2019-01-24T23:05:57.575Z,101817.20
2019-01-24T23:08:29.560Z,101812.47
2019-01-24T23:11:01.653Z,101805.96
2019-01-24T23:13:33.374Z,101809.20
2019-01-24T23:16:05.378Z,101805.11
2019-01-24T23:18:37.116Z,101806.20
2019-01-24T23:21:08.832Z,101805.72
2019-01-24T23:23:40.554Z,101801.94
2019-01-24T23:26:12.265Z,101807.16
2019-01-24T23:28:43.984Z,101809.48
2019-01-24T23:31:15.702Z,101802.95
2019-01-24T23:33:47.423Z,101806.48
2019-01-24T23:36:19.139Z,101803.31
2019-01-24T23:38:50.931Z,101806.36
2019-01-24T23:41:22.646Z,101802.66
2019-01-24T23:43:54.385Z,101799.97
2019-01-24T23:46:26.092Z,101801.25
2019-01-24T23:48:57.809Z,101801.01
2019-01-24T23:51:29.613Z,101799.56
2019-01-24T23:54:01.435Z,101797.48
2019-01-24T23:56:33.175Z,101806.23
2019-01-24T23:59:05.145Z,101804.94
